Grand Chain, IL (62941)

3:46 PM CST on December 27, 2014 (GMT -0600)
Weather Observatory | Change Station
CLOSE
Current Station
Personal Weather Station
Location: Round Knob, IL
Elevation: 384 ft
Nearby Weather Stations

Elev 384 ft 37.25 °N, 88.76 °W | Updated 4 seconds ago

Overcast
Overcast
51.0 °F
Feels Like 51.0 °F
N
0.0
Wind Variable Wind from SSE
Gusts 1.0 mph

Today
High -- | Low -- °F
--% Chance of Precip.
Yesterday
High -- | Low -- °F
Precip. -- in
7:08 AM 4:45 PM
Waxing Crescent, 40% visible
Pressure 30.08 in
Visibility 2.0 miles
Clouds Overcast 200 ft
Dew Point 51 °F
Humidity 100%
Rainfall 0.25 in
Snow Depth Not available.
UV 0 out of 12
Pollen .80 out of 12
Air Quality Not available.
Flu Activity Not available.
METAR KM30 272135Z AUTO 00000KT 2SM -DZ OVC002 10/10 A3008 RMK AO2 P0001 T01010101

More Conditions Fewer Conditions

Pressure 30.08 in
Visibility 2.0 miles
Clouds Overcast 200 ft
Dew Point 51 °F
Humidity 100%
Rainfall 0.25 in
Snow Depth Not available.
UV 0 out of 12
Pollen .80 out of 12
Air Quality Not available.
Flu Activity Not available.
METAR KM30 272135Z AUTO 00000KT 2SM -DZ OVC002 10/10 A3008 RMK AO2 P0001 T01010101

More Conditions Fewer Conditions

10-Day Weather Forecast

Almanac

Astronomy

Dec. 27, 2014 Rise Set
Actual Time
Civil Twilight
Nautical Twilight
Astronomical Twilight
Moon
Length of Visible Light
Length of Day
Tomorrow will be .
, % of the Moon is Illuminated

Today's Extremes

State Highs State Lows

Community

WunderPhotos

Upload Photos

1,781,073 photos uploaded!

WunderBlogs® & News

Nearby

Air Quality

  Air Quality AQ Index Pollutant
Not available.

Snow Depth

Station Depth Elevation

Earthquake Activity

City Distance Mag. Time & Date
Minimum magnitude displayed is 2.5.

Coastal Water Temperatures

Place Temperature

Nearby Weather Stations